Saddle River, New Jersey
Current Conditions -  °F | °C
As of 6:51 PM on Tuesday 25 Nov 2014 (Local Time) from KTEB Reporting Station
Clear Clear  
Wind Chill: 52°   Ceiling: Unl
Heat Index: 52°   Visibility: 10mi
Dew Point: 28°   Wind: 8mph
Humidity: 40%   Direction: 230°SW
Pressure: 30.05"   Gusts: NA
Location:  41.03°N, 74.1°W
Report Text: KTEB 252351Z 23007KT 10SM CLR 11/M02 A3005 RMK AO2 SLP177 T01111022 10133 20100 53019
Loading
Personal Weather Stations






























Interactive Weather Map New forecast layout! Learn more

10-Day Weather Forecast

Advertisements
Track Severe Weather on mobile